Forside
METAR-TAF:

METAR-TAF

Lufthavne :

Jönköping Airport

Jönköping, Sverige

Breddekreds: 57-46N, længdekreds: 014-05E, højde: 226 m

Aktuelle vejr

Denne rapport blev lavet for 20 minutter siden, kl. 10:20 UTC
Vind 10 kt fra sydsydøst
Temperatur 26°C
Fugtighed 70%
Tryk 1007 hPa
Sigt 10 km eller mere
Spredte skyer i en højde af 3200 ft

METAR: ESGJ 161020Z 15010KT 9999 SCT032 26/20 Q1007

Tid: 12:40 (10:40 UTC)

Vejrudsigter

Denne rapport blev lavet for 32 minutter siden, kl. 10:08 UTC
Foreløbig gælder fra 16 på 10 UTC til 16 på 15 UTC
Vind 8 kt fra sydøst
Sigt 10 km eller mere
Spredte skyer i en højde af 3000 ft
Midlertidig
fra 16 på 10 UTC til 16 på 12 UTC
Sigt: 4000 m
Brudte skyer i en højde af 2500 ft, Cumulonimbus.
tordenbyger, regn
Sandsynlighed 40%
fra 16 på 12 UTC til 16 på 15 UTC
Spredte skyer i en højde af 3000 ft, Cumulonimbus.
regnbyger

TAF: ESGJ 161008Z 1610/1615 13008KT 9999 SCT030 TEMPO 1610/1612 4000 TSRA BKN025CB PROB40 1612/1615 SHRA SCT030CB

Vejrobservationer og prognoser fra mere end 4000 lufthavne (METAR og TAF).

De gule og røde prikker repræsenterer de meteorologiske stationer.

Flyt musen over at se navnet på stationen.

Så klik over at se vejr observationer og prognoser.

At skifte det kort: Klik på de grønne knapper med et sort kors for at zoome ind; på den grønne knap med en bindestreg for at zoome ud; eller på de grønne pile for tilstødende kort.


METAR-TAF: